createdAt,value
2019-04-03T00:03:11.154Z,11.50
2019-04-03T00:08:14.159Z,11.30
2019-04-03T00:13:16.103Z,11.50
2019-04-03T00:18:18.160Z,11.77
2019-04-03T00:23:21.973Z,12.70
2019-04-03T00:28:23.774Z,12.07
2019-04-03T00:33:25.607Z,12.17
2019-04-03T00:38:27.434Z,11.57
2019-04-03T00:43:29.626Z,11.80
2019-04-03T00:48:31.858Z,12.00
2019-04-03T00:53:33.699Z,11.83
2019-04-03T00:58:37.445Z,10.83
2019-04-03T01:03:41.405Z,11.23
2019-04-03T01:08:43.308Z,11.53
2019-04-03T01:13:45.128Z,12.30
2019-04-03T01:18:46.989Z,12.00
2019-04-03T01:23:49.073Z,12.00
2019-04-03T01:28:50.969Z,12.43
2019-04-03T01:33:52.799Z,12.33
2019-04-03T01:38:54.931Z,15.30
2019-04-03T01:43:57.462Z,13.73
2019-04-03T01:48:59.268Z,13.23
2019-04-03T01:54:02.982Z,13.37
2019-04-03T01:59:06.901Z,13.93
2019-04-03T02:04:08.633Z,14.03
2019-04-03T02:09:10.562Z,14.23
2019-04-03T02:14:12.497Z,13.93
2019-04-03T02:19:14.501Z,13.93
2019-04-03T02:24:17.427Z,13.50
2019-04-03T02:29:19.363Z,14.60
2019-04-03T02:34:21.381Z,13.07
2019-04-03T02:39:26.244Z,14.00
2019-04-03T02:44:27.117Z,14.53
2019-04-03T02:49:28.999Z,15.20
2019-04-03T02:54:35.884Z,15.73
2019-04-03T02:59:38.128Z,16.07
2019-04-03T03:04:40.055Z,14.97
2019-04-03T03:09:46.929Z,16.90
2019-04-03T03:14:48.543Z,16.03
2019-04-03T03:19:51.501Z,16.53
2019-04-03T03:24:53.550Z,16.37
2019-04-03T03:29:58.437Z,15.43
2019-04-03T03:35:12.738Z,17.07
2019-04-03T03:40:06.692Z,17.47
2019-04-03T03:45:09.359Z,18.03
2019-04-03T03:50:11.566Z,20.43
2019-04-03T03:55:13.477Z,21.00
2019-04-03T04:00:15.579Z,18.47
2019-04-03T04:05:19.828Z,19.50
2019-04-03T04:10:25.181Z,19.63
2019-04-03T04:15:29.937Z,19.37
2019-04-03T04:20:32.246Z,19.60
2019-04-03T04:25:35.644Z,21.00
2019-04-03T04:30:37.645Z,19.80
2019-04-03T04:35:39.736Z,18.47
2019-04-03T04:40:41.874Z,18.60
2019-04-03T04:45:43.708Z,19.87
2019-04-03T04:50:46.237Z,18.77
2019-04-03T04:55:48.232Z,18.57
2019-04-03T05:00:53.245Z,19.73
2019-04-03T05:05:57.244Z,19.83
2019-04-03T05:10:58.535Z,19.27
2019-04-03T05:16:00.839Z,18.40
2019-04-03T05:21:03.186Z,19.63
2019-04-03T05:26:04.999Z,20.70
2019-04-03T05:31:08.147Z,19.63
2019-04-03T05:36:10.559Z,18.50
2019-04-03T05:41:12.400Z,19.30
2019-04-03T05:46:14.213Z,20.00
2019-04-03T05:51:16.074Z,20.07
2019-04-03T05:56:18.293Z,21.90
2019-04-03T06:01:20.320Z,20.33
2019-04-03T06:06:22.159Z,18.77
2019-04-03T06:11:23.971Z,19.53
2019-04-03T06:16:26.465Z,23.67
2019-04-03T06:21:30.476Z,19.47
2019-04-03T06:26:33.064Z,18.10
2019-04-03T06:31:35.385Z,19.23
2019-04-03T06:36:37.319Z,21.40
2019-04-03T06:41:41.662Z,18.97
2019-04-03T06:46:43.002Z,19.63
2019-04-03T06:51:45.220Z,18.87
2019-04-03T06:56:47.071Z,20.43
2019-04-03T07:01:48.904Z,20.13
2019-04-03T07:06:50.956Z,19.20
2019-04-03T07:11:52.871Z,18.97
2019-04-03T07:16:54.718Z,25.13
2019-04-03T07:21:56.686Z,22.23
2019-04-03T07:26:58.685Z,19.53
2019-04-03T07:32:00.712Z,21.43
2019-04-03T07:37:02.655Z,23.23
2019-04-03T07:42:05.512Z,19.57
2019-04-03T07:47:07.592Z,26.17
2019-04-03T07:52:12.517Z,22.70
2019-04-03T07:57:16.080Z,21.97
2019-04-03T08:02:17.086Z,22.43
2019-04-03T08:07:20.720Z,22.23
2019-04-03T08:12:23.483Z,22.90
2019-04-03T08:17:25.428Z,22.83
2019-04-03T08:22:28.538Z,27.17
2019-04-03T08:27:30.584Z,24.30
2019-04-03T08:32:34.877Z,22.50
2019-04-03T08:37:36.742Z,22.90
2019-04-03T08:42:38.527Z,22.43
2019-04-03T08:47:40.525Z,25.13
2019-04-03T08:52:42.458Z,25.20
2019-04-03T08:57:46.458Z,24.63
2019-04-03T09:02:48.078Z,27.37
2019-04-03T09:07:50.038Z,23.37
2019-04-03T09:12:51.962Z,25.17
2019-04-03T09:17:55.103Z,23.90
2019-04-03T09:22:57.045Z,27.47
2019-04-03T09:27:58.904Z,24.13
2019-04-03T09:33:00.859Z,23.00
2019-04-03T09:38:03.396Z,29.80
2019-04-03T09:43:05.771Z,24.80
2019-04-03T09:48:07.782Z,23.23
2019-04-03T09:53:09.680Z,29.47
2019-04-03T09:58:11.754Z,31.63
2019-04-03T10:03:13.894Z,23.33
2019-04-03T10:08:16.040Z,25.23
2019-04-03T10:13:18.220Z,25.20
2019-04-03T10:18:21.998Z,23.27
2019-04-03T10:23:23.971Z,27.80
2019-04-03T10:28:25.911Z,24.53
2019-04-03T10:33:30.571Z,35.27
2019-04-03T10:38:31.637Z,25.00
2019-04-03T10:43:36.223Z,32.60
2019-04-03T10:48:38.129Z,24.53
2019-04-03T10:53:39.976Z,23.50
2019-04-03T10:58:43.439Z,25.00
2019-04-03T11:03:45.574Z,27.93
2019-04-03T11:08:47.758Z,27.93
2019-04-03T11:13:49.752Z,25.67
2019-04-03T11:18:58.697Z,21.33
2019-04-03T11:23:55.374Z,22.60
2019-04-03T11:28:57.339Z,20.90
2019-04-03T11:33:59.341Z,19.97
2019-04-03T11:39:11.647Z,23.40
2019-04-03T11:44:06.326Z,21.33
2019-04-03T11:49:08.353Z,21.97
2019-04-03T11:54:10.599Z,23.20
2019-04-03T11:59:12.776Z,27.60
2019-04-03T12:04:14.876Z,27.10
2019-04-03T12:09:16.845Z,24.40
2019-04-03T12:14:18.776Z,28.17
2019-04-03T12:19:22.042Z,23.47
2019-04-03T12:24:24.006Z,19.00
2019-04-03T12:29:25.839Z,15.50
2019-04-03T12:34:28.438Z,21.07
2019-04-03T12:39:31.981Z,22.27
2019-04-03T12:44:33.829Z,23.90
2019-04-03T12:49:36.058Z,25.27
2019-04-03T12:54:38.045Z,22.40
2019-04-03T12:59:40.776Z,20.10
2019-04-03T13:04:42.785Z,25.13
2019-04-03T13:09:44.604Z,24.93
2019-04-03T13:14:48.838Z,21.00
2019-04-03T13:19:50.281Z,22.00
2019-04-03T13:24:52.130Z,22.15
2019-04-03T13:29:53.982Z,23.38
2019-04-03T13:34:56.158Z,20.25
2019-04-03T13:40:00.365Z,23.95
2019-04-03T13:45:02.420Z,22.02
2019-04-03T13:50:07.350Z,23.25
2019-04-03T13:55:09.752Z,22.73
2019-04-03T14:00:19.738Z,22.52
2019-04-03T14:05:17.986Z,26.65
2019-04-03T14:10:19.922Z,24.85
2019-04-03T14:15:22.033Z,22.07
2019-04-03T14:20:24.922Z,22.27
2019-04-03T14:25:31.410Z,22.05
2019-04-03T14:30:30.653Z,22.77
2019-04-03T14:35:49.309Z,21.55
2019-04-03T14:40:36.237Z,21.12
2019-04-03T14:45:39.603Z,21.52
2019-04-03T14:50:41.985Z,23.25
2019-04-03T14:55:48.173Z,21.65
2019-04-03T15:00:49.440Z,23.98
2019-04-03T15:05:51.310Z,25.72
2019-04-03T15:10:53.556Z,25.85
2019-04-03T15:15:57.302Z,25.30
2019-04-03T15:21:01.246Z,35.55
2019-04-03T15:26:04.452Z,36.93
2019-04-03T15:31:06.512Z,33.20
2019-04-03T15:36:08.878Z,24.60
2019-04-03T15:41:11.334Z,25.35
2019-04-03T15:46:13.185Z,27.15
2019-04-03T15:51:15.167Z,23.77
2019-04-03T15:56:17.047Z,24.95
2019-04-03T16:01:19.406Z,24.37
2019-04-03T16:06:21.512Z,27.10
2019-04-03T16:11:23.632Z,26.17
2019-04-03T16:16:28.381Z,29.37
2019-04-03T16:21:31.645Z,28.38
2019-04-03T16:26:33.738Z,28.35
2019-04-03T16:31:35.564Z,27.13
2019-04-03T16:36:37.391Z,28.23
2019-04-03T16:41:42.476Z,28.00
2019-04-03T16:46:43.042Z,28.67
2019-04-03T16:51:44.895Z,28.97
2019-04-03T16:56:48.472Z,39.57
2019-04-03T17:01:51.106Z,34.37
2019-04-03T17:06:53.336Z,29.93
2019-04-03T17:11:55.276Z,33.93
2019-04-03T17:16:57.221Z,30.47
2019-04-03T17:21:59.105Z,34.00
2019-04-03T17:27:02.077Z,33.43
2019-04-03T17:32:07.805Z,33.30
2019-04-03T17:37:07.936Z,33.13
2019-04-03T17:42:09.703Z,34.30
2019-04-03T17:47:11.519Z,32.20
2019-04-03T17:52:13.406Z,33.13
2019-04-03T17:57:17.495Z,34.87
2019-04-03T18:02:19.301Z,36.63
2019-04-03T18:07:21.301Z,38.47
2019-04-03T18:12:23.084Z,35.67
2019-04-03T18:17:24.906Z,33.10
2019-04-03T18:22:26.725Z,34.57
2019-04-03T18:27:28.712Z,34.27
2019-04-03T18:32:30.542Z,31.47
2019-04-03T18:37:35.262Z,28.77
2019-04-03T18:42:37.065Z,29.17
2019-04-03T18:47:41.656Z,38.20
2019-04-03T18:52:42.823Z,42.13
2019-04-03T18:57:44.767Z,32.30
2019-04-03T19:02:46.748Z,34.50
2019-04-03T19:07:48.600Z,31.27
2019-04-03T19:12:50.437Z,32.07
2019-04-03T19:18:00.133Z,31.53
2019-04-03T19:23:02.568Z,25.43
2019-04-03T19:27:59.843Z,30.67
2019-04-03T19:33:01.851Z,29.63
2019-04-03T19:38:05.017Z,25.43
2019-04-03T19:43:07.414Z,26.63
2019-04-03T19:48:09.258Z,26.20
2019-04-03T19:53:13.199Z,26.37
2019-04-03T19:58:14.851Z,28.23
2019-04-03T20:03:17.953Z,28.93
2019-04-03T20:08:19.775Z,30.83
2019-04-03T20:13:21.605Z,24.73
2019-04-03T20:18:25.602Z,25.63
2019-04-03T20:23:30.086Z,24.57
2019-04-03T20:28:31.211Z,25.37
2019-04-03T20:33:33.242Z,24.83
2019-04-03T20:38:35.065Z,24.97
2019-04-03T20:43:38.176Z,22.60
2019-04-03T20:48:40.033Z,24.97
2019-04-03T20:53:41.848Z,23.33
2019-04-03T20:58:55.357Z,24.93
2019-04-03T21:03:47.438Z,29.93
2019-04-03T21:08:49.270Z,31.27
2019-04-03T21:13:51.120Z,29.43
2019-04-03T21:18:52.958Z,30.17
2019-04-03T21:23:54.793Z,28.57
2019-04-03T21:28:56.655Z,28.03
2019-04-03T21:34:01.547Z,26.77
2019-04-03T21:39:04.788Z,30.47
2019-04-03T21:44:06.958Z,24.97
2019-04-03T21:49:08.783Z,26.00
2019-04-03T21:54:10.687Z,26.87
2019-04-03T21:59:14.748Z,34.47
2019-04-03T22:04:16.588Z,24.30
2019-04-03T22:09:18.389Z,28.20
2019-04-03T22:14:20.203Z,26.83
2019-04-03T22:19:22.041Z,28.83
2019-04-03T22:24:24.193Z,26.83
2019-04-03T22:29:27.544Z,28.70
2019-04-03T22:34:30.005Z,31.97
2019-04-03T22:39:32.359Z,31.33
2019-04-03T22:44:34.384Z,29.90
2019-04-03T22:49:36.224Z,30.00
2019-04-03T22:54:38.330Z,34.57
2019-04-03T22:59:40.194Z,33.60
2019-04-03T23:04:43.442Z,27.97
2019-04-03T23:09:45.763Z,33.63
2019-04-03T23:14:47.569Z,28.13
2019-04-03T23:19:51.669Z,37.53
2019-04-03T23:24:53.598Z,32.77
2019-04-03T23:29:55.575Z,34.80
2019-04-03T23:34:57.934Z,33.47
2019-04-03T23:40:00.990Z,29.43
2019-04-03T23:45:04.198Z,33.50
2019-04-03T23:50:07.806Z,25.97
2019-04-03T23:55:10.109Z,33.40
